Terminal Aerodrome Forecast
Issued by NWS

Home | Current Version | Previous Version | Text Only | Print | Product List | Glossary On
Versions: 1 2 3 4 5 6 7 8 9 10 11 12 13 14 15 16 17 18 19 20 21 22
207
FTUS43 KIND 232321
TAFLAF
TAF
KLAF 232321Z 2400/2424 15009KT P6SM VCSH BKN050 OVC100
     FM240300 16009KT P6SM BKN110 WS020/18040KT
     FM240500 18009KT P6SM SCT150 WS020/20045KT
     FM241300 20011G20KT P6SM BKN050
     FM241600 20014G27KT P6SM BKN025
      AMD LTD TO CLD VIS AND WIND TIL 241300=

USA.gov is the U.S. government's official web portal to all federal, state and local government web resources and services.